Details for Aegean Airlines at LGTS




Go Back


Latest METAR
Local Time

LGTS 240720Z 30008KT 9999 FEW020TCU SCT025 22/16 Q1014 NOSIG

24/05/2018, 10:53:49

Description
Results
Aegean Airlines Logo
Number of Pilots based at LGTS
0 Pilots Based here
Number of Aegean Airlines Flights Departed from LGTS
1 Flights Departed
Number of Aegean Airlines Flights Arrived at LGTS
1 Flights Arrived
Number of Aegean Airlines Schedules Departing from LGTS
10 Schedules
Number of Aegean Airlines Schedules Arriving at LGTS
10 Schedules
Number of Aegean Airlines Schedules Departing from LGTS availible today
7 Schedules Today
Number of Aegean Airlines Schedules Arriving at LGTS availible today
6 Schedules Today
Average Landing Rate at LGTS
-221 fpm
Aegean Airlines Average Landing Rate at LGTS
-301 fpm
Total Fuel Purchased at LGTS by Aegean Airlines
4,292.80 kgs / 9,463.91 lbs

Pilots Based at LGTS


Pilot ID
Pilot Name
Pilot Rank
No. of Flights
No. of Flying Hours
There are no pilots assigned to this hub!   Will you be the first?
Content